createdAt,value
2022-11-21T00:00:33.523Z,93257.81
2022-11-21T00:03:01.900Z,93262.44
2022-11-21T00:05:29.519Z,93261.63
2022-11-21T00:07:57.141Z,93259.72
2022-11-21T00:10:24.866Z,93256.19
2022-11-21T00:12:56.215Z,93252.69
2022-11-21T00:15:24.196Z,93253.50
2022-11-21T00:17:51.878Z,93252.69
2022-11-21T00:20:19.951Z,93250.00
2022-11-21T00:22:47.613Z,93249.16
2022-11-21T00:25:15.445Z,93246.47
2022-11-21T00:27:43.324Z,93263.53
2022-11-21T00:30:13.027Z,93254.59
2022-11-21T00:32:40.677Z,93246.47
2022-11-21T00:35:09.035Z,93241.03
2022-11-21T00:37:36.624Z,93237.81
2022-11-21T00:40:04.554Z,93230.50
2022-11-21T00:42:32.223Z,93232.38
2022-11-21T00:44:59.828Z,93229.94
2022-11-21T00:47:28.768Z,93246.22
2022-11-21T00:49:56.379Z,93249.75
2022-11-21T00:52:23.971Z,93248.13
2022-11-21T00:54:51.557Z,93246.22
2022-11-21T00:57:19.111Z,93252.47
2022-11-21T00:59:46.673Z,93254.34
2022-11-21T01:02:14.700Z,93251.66
2022-11-21T01:04:43.652Z,93267.13
2022-11-21T01:07:11.232Z,93259.78
2022-11-21T01:09:38.820Z,93258.16
2022-11-21T01:12:06.880Z,93254.66
2022-11-21T01:14:34.460Z,93254.66
2022-11-21T01:17:02.101Z,93256.56
2022-11-21T01:19:29.723Z,93248.41
2022-11-21T01:21:58.693Z,93253.84
2022-11-21T01:24:26.487Z,93251.13
2022-11-21T01:26:54.629Z,93247.63
2022-11-21T01:29:22.271Z,93244.91
2022-11-21T01:31:49.991Z,93248.41
2022-11-21T01:34:17.608Z,93246.81
2022-11-21T01:36:45.289Z,93246.81
2022-11-21T01:39:14.261Z,93244.41
2022-11-21T01:41:42.846Z,93244.09
2022-11-21T01:44:15.159Z,93238.16
2022-11-21T01:46:42.776Z,93237.06
2022-11-21T01:49:11.141Z,93229.22
2022-11-21T01:51:40.033Z,93229.22
2022-11-21T01:54:09.163Z,93228.41
2022-11-21T01:56:40.251Z,93229.22
2022-11-21T01:59:07.792Z,93215.66
2022-11-21T02:01:35.532Z,93221.38
2022-11-21T02:04:03.472Z,93212.94
2022-11-21T02:06:31.340Z,93215.66
2022-11-21T02:08:58.973Z,93212.16
2022-11-21T02:11:30.622Z,93209.44
2022-11-21T02:13:59.791Z,93201.31
2022-11-21T02:16:27.568Z,93204.81
2022-11-21T02:18:55.205Z,93202.09
2022-11-21T02:21:27.496Z,93196.69
2022-11-21T02:24:00.476Z,93193.97
2022-11-21T02:26:29.904Z,93195.88
2022-11-21T02:28:57.548Z,93197.78
2022-11-21T02:31:25.154Z,93198.59
2022-11-21T02:33:52.737Z,93185.81
2022-11-21T02:36:37.095Z,93193.97
2022-11-21T02:39:05.112Z,93184.22
2022-11-21T02:41:34.056Z,93191.25
2022-11-21T02:44:05.372Z,93174.19
2022-11-21T02:46:32.945Z,93171.47
2022-11-21T02:49:00.543Z,93169.56
2022-11-21T02:51:28.121Z,93174.97
2022-11-21T02:53:55.780Z,93166.84
2022-11-21T02:56:23.425Z,93153.28
2022-11-21T02:58:52.510Z,93143.56
2022-11-21T03:01:20.365Z,93135.97
2022-11-21T03:03:47.987Z,93147.88
2022-11-21T03:06:15.586Z,93145.97
2022-11-21T03:08:43.191Z,93145.97
2022-11-21T03:11:10.761Z,93141.66
2022-11-21T03:13:38.354Z,93149.78
2022-11-21T03:16:07.391Z,93144.38
2022-11-21T03:18:35.005Z,93141.66
2022-11-21T03:21:02.644Z,93142.75
2022-11-21T03:23:30.285Z,93131.91
2022-11-21T03:25:59.603Z,93130.31
2022-11-21T03:28:27.192Z,93128.38
2022-11-21T03:30:54.759Z,93133.81
2022-11-21T03:33:23.735Z,93127.59
2022-11-21T03:35:51.301Z,93133.03
2022-11-21T03:38:18.936Z,93129.50
2022-11-21T03:40:46.512Z,93129.50
2022-11-21T03:43:14.086Z,93134.13
2022-11-21T03:45:41.649Z,93127.88
2022-11-21T03:48:09.204Z,93130.59
2022-11-21T03:50:38.167Z,93127.88
2022-11-21T03:53:05.877Z,93137.63
2022-11-21T03:55:33.452Z,93128.69
2022-11-21T03:58:01.033Z,93132.19
2022-11-21T04:00:28.593Z,93129.50
2022-11-21T04:02:56.177Z,93122.19
2022-11-21T04:05:23.743Z,93126.78
2022-11-21T04:07:53.894Z,93117.53
2022-11-21T04:10:21.954Z,93124.88
2022-11-21T04:12:49.518Z,93125.97
2022-11-21T04:15:17.384Z,93107.78
2022-11-21T04:17:44.956Z,93107.78
2022-11-21T04:20:12.803Z,93110.50
2022-11-21T04:22:40.419Z,93107.78
2022-11-21T04:25:09.827Z,93103.19
2022-11-21T04:27:37.416Z,93082.31
2022-11-21T04:30:05.963Z,93081.50
2022-11-21T04:32:33.579Z,93079.59
2022-11-21T04:35:01.508Z,93082.31
2022-11-21T04:37:29.091Z,93073.38
2022-11-21T04:39:56.738Z,93068.75
2022-11-21T04:42:25.678Z,93059.00
2022-11-21T04:44:53.251Z,93069.56
2022-11-21T04:47:20.823Z,93065.25
2022-11-21T04:49:48.481Z,93066.84
2022-11-21T04:52:16.315Z,93068.75
2022-11-21T04:54:43.937Z,93069.56
2022-11-21T04:57:11.608Z,93072.28
2022-11-21T04:59:40.579Z,93074.16
2022-11-21T05:02:08.264Z,93071.47
2022-11-21T05:04:35.860Z,93076.88
2022-11-21T05:07:03.570Z,93071.47
2022-11-21T05:09:31.190Z,93076.88
2022-11-21T05:12:16.166Z,93078.50
2022-11-21T05:14:45.095Z,93070.66
2022-11-21T05:17:12.758Z,93069.06
2022-11-21T05:19:40.334Z,93071.78
2022-11-21T05:22:07.897Z,93071.78
2022-11-21T05:24:35.472Z,93067.44
2022-11-21T05:27:03.021Z,93077.19
2022-11-21T05:29:30.586Z,93067.44
2022-11-21T05:31:59.568Z,93072.06
2022-11-21T05:34:27.550Z,93070.94
2022-11-21T05:36:57.098Z,93074.75
2022-11-21T05:39:24.840Z,93072.06
2022-11-21T05:41:52.552Z,93081.78
2022-11-21T05:44:19.179Z,93081.78
2022-11-21T05:46:46.750Z,93078.78
2022-11-21T05:49:15.702Z,93078.78
2022-11-21T05:51:43.311Z,93083.41
2022-11-21T05:54:13.675Z,93084.22
2022-11-21T05:56:41.243Z,93088.81
2022-11-21T05:59:09.324Z,93101.59
2022-11-21T06:01:54.650Z,93096.97
2022-11-21T06:04:23.543Z,93096.97
2022-11-21T06:06:51.232Z,93100.75
2022-11-21T06:09:19.149Z,93107.00
2022-11-21T06:11:46.705Z,93113.22
2022-11-21T06:14:14.310Z,93109.72
2022-11-21T06:16:41.834Z,93111.63
2022-11-21T06:19:09.584Z,93118.94
2022-11-21T06:21:38.488Z,93095.34
2022-11-21T06:24:07.798Z,93109.72
2022-11-21T06:26:35.356Z,93106.19
2022-11-21T06:29:02.927Z,93110.50
2022-11-21T06:31:31.755Z,93114.31
2022-11-21T06:33:59.718Z,93106.19
2022-11-21T06:36:27.496Z,93100.75
2022-11-21T06:38:56.529Z,93108.63
2022-11-21T06:41:24.959Z,93097.28
2022-11-21T06:43:52.664Z,93105.41
2022-11-21T06:46:20.242Z,93117.84
2022-11-21T06:48:47.828Z,93112.44
2022-11-21T06:51:18.241Z,93110.81
2022-11-21T06:53:45.948Z,93120.56
2022-11-21T06:56:15.497Z,93127.88
2022-11-21T06:58:43.057Z,93125.16
2022-11-21T07:01:11.128Z,93131.69
2022-11-21T07:03:38.832Z,93135.22
2022-11-21T07:06:06.754Z,93133.31
2022-11-21T07:08:35.302Z,93137.09
2022-11-21T07:11:24.182Z,93147.97
2022-11-21T07:13:52.036Z,93139.81
2022-11-21T07:16:19.707Z,93139.03
2022-11-21T07:18:47.237Z,93148.78
2022-11-21T07:21:14.767Z,93148.78
2022-11-21T07:23:42.326Z,93150.66
2022-11-21T07:26:11.256Z,93157.69
2022-11-21T07:28:38.918Z,93151.50
2022-11-21T07:31:13.230Z,93147.16
2022-11-21T07:33:43.067Z,93164.22
2022-11-21T07:36:10.658Z,93163.13
2022-11-21T07:38:38.352Z,93159.63
2022-11-21T07:41:05.940Z,93161.22
2022-11-21T07:43:33.482Z,93160.41
2022-11-21T07:46:01.203Z,93165.03
2022-11-21T07:48:30.124Z,93164.22
2022-11-21T07:50:57.675Z,93168.53
2022-11-21T07:53:25.227Z,93170.47
2022-11-21T07:55:53.095Z,93166.13
2022-11-21T07:58:20.742Z,93159.63
2022-11-21T08:00:48.325Z,93168.53
2022-11-21T08:03:15.888Z,93164.22
2022-11-21T08:05:44.955Z,93168.22
2022-11-21T08:08:13.376Z,93166.22
2022-11-21T08:10:41.555Z,93159.88
2022-11-21T08:13:09.187Z,93166.41
2022-11-21T08:15:36.824Z,93155.34
2022-11-21T08:18:14.135Z,93163.84
2022-11-21T08:20:41.798Z,93159.41
2022-11-21T08:23:11.721Z,93152.88
2022-11-21T08:25:39.524Z,93150.38
2022-11-21T08:28:07.401Z,93147.88
2022-11-21T08:30:35.400Z,93150.00
2022-11-21T08:33:02.973Z,93155.97
2022-11-21T08:35:30.884Z,93144.84
2022-11-21T08:37:58.535Z,93146.16
2022-11-21T08:40:27.776Z,93145.56
2022-11-21T08:42:58.538Z,93140.16
2022-11-21T08:45:26.163Z,93150.72
2022-11-21T08:47:53.807Z,93147.19
2022-11-21T08:50:21.499Z,93134.16
2022-11-21T08:52:49.055Z,93136.84
2022-11-21T08:55:16.792Z,93139.28
2022-11-21T08:57:45.719Z,93127.84
2022-11-21T09:00:14.274Z,93132.19
2022-11-21T09:02:41.845Z,93134.59
2022-11-21T09:05:10.490Z,93141.38
2022-11-21T09:07:38.084Z,93144.28
2022-11-21T09:10:06.792Z,93144.00
2022-11-21T09:12:34.345Z,93146.13
2022-11-21T09:15:20.960Z,93146.63
2022-11-21T09:18:07.983Z,93139.81
2022-11-21T09:20:39.735Z,93148.97
2022-11-21T09:23:08.268Z,93138.66
2022-11-21T09:25:35.962Z,93131.03
2022-11-21T09:28:03.598Z,93130.44
2022-11-21T09:30:32.495Z,93129.06
2022-11-21T09:33:01.508Z,93130.38
2022-11-21T09:35:29.076Z,93129.81
2022-11-21T09:37:56.631Z,93126.19
2022-11-21T09:40:24.307Z,93135.38
2022-11-21T09:43:04.127Z,93134.50
2022-11-21T09:45:34.760Z,93129.25
2022-11-21T09:48:03.741Z,93130.31
2022-11-21T09:50:32.807Z,93133.22
2022-11-21T09:53:02.732Z,93123.72
2022-11-21T09:55:32.844Z,93123.63
2022-11-21T09:58:01.346Z,93108.38
2022-11-21T10:00:28.986Z,93100.75
2022-11-21T10:02:57.957Z,93105.28
2022-11-21T10:05:30.872Z,93101.16
2022-11-21T10:07:59.156Z,93100.25
2022-11-21T10:10:32.634Z,93101.09
2022-11-21T10:13:10.525Z,93105.09
2022-11-21T10:15:44.540Z,93103.69
2022-11-21T10:18:25.862Z,93087.63
2022-11-21T10:20:56.060Z,93083.81
2022-11-21T10:23:33.846Z,93079.69
2022-11-21T10:26:10.696Z,93083.19
2022-11-21T10:28:41.252Z,93075.06
2022-11-21T10:31:09.629Z,93085.91
2022-11-21T10:33:40.328Z,93078.88
2022-11-21T10:36:10.249Z,93077.00
2022-11-21T10:38:38.818Z,93079.69
2022-11-21T10:41:08.475Z,93078.88
2022-11-21T10:43:55.363Z,93073.44
2022-11-21T10:46:22.909Z,93069.94
2022-11-21T10:48:55.415Z,93065.63
2022-11-21T10:51:29.894Z,93056.66
2022-11-21T10:54:23.162Z,93047.72
2022-11-21T10:56:50.713Z,93055.84
2022-11-21T10:59:28.624Z,93046.31
2022-11-21T11:01:58.646Z,93053.66
2022-11-21T11:04:29.600Z,93055.28
2022-11-21T11:07:00.027Z,93053.66
2022-11-21T11:09:30.153Z,93047.41
2022-11-21T11:12:47.138Z,93037.66
2022-11-21T11:15:21.727Z,93036.84
2022-11-21T11:17:53.619Z,93025.19
2022-11-21T11:20:37.751Z,93017.06
2022-11-21T11:23:19.130Z,93008.09
2022-11-21T11:25:48.089Z,93006.19
2022-11-21T11:28:15.728Z,93009.22
2022-11-21T11:30:43.272Z,93014.63
2022-11-21T11:33:32.304Z,93003.00
2022-11-21T11:36:11.107Z,92997.84
2022-11-21T11:38:38.671Z,92988.91
2022-11-21T11:41:11.179Z,92993.53
2022-11-21T11:43:57.230Z,92983.78
2022-11-21T11:46:49.103Z,92984.06
2022-11-21T11:49:21.228Z,92983.28
2022-11-21T11:51:52.520Z,92979.75
2022-11-21T11:54:22.352Z,92984.88
2022-11-21T11:56:49.992Z,92970.00
2022-11-21T11:59:19.793Z,92971.59
2022-11-21T12:01:49.671Z,92968.38
2022-11-21T12:04:18.399Z,92964.06
2022-11-21T12:09:39.869Z,92942.66
2022-11-21T12:12:11.411Z,92931.31
2022-11-21T12:15:11.124Z,92919.66
2022-11-21T12:17:41.283Z,92922.38
2022-11-21T12:20:15.583Z,92912.31
2022-11-21T12:22:43.275Z,92910.69
2022-11-21T12:25:13.392Z,92899.84
2022-11-21T12:27:41.924Z,92896.84
2022-11-21T12:30:26.532Z,92896.03
2022-11-21T12:32:57.007Z,92896.03
2022-11-21T12:35:45.362Z,92897.94
2022-11-21T12:38:20.736Z,92894.41
2022-11-21T12:40:53.318Z,92881.97
2022-11-21T12:43:25.036Z,92887.72
2022-11-21T12:45:55.654Z,92888.50
2022-11-21T12:48:49.795Z,92879.56
2022-11-21T12:51:42.372Z,92880.66
2022-11-21T12:54:33.779Z,92869.31
2022-11-21T12:57:09.069Z,92874.72
2022-11-21T12:59:40.932Z,92869.63
2022-11-21T13:02:13.311Z,92869.31
2022-11-21T13:04:41.241Z,92864.19
2022-11-21T13:07:08.989Z,92854.75
2022-11-21T13:09:38.527Z,92846.09
2022-11-21T13:12:08.716Z,92839.56
2022-11-21T13:14:41.133Z,92836.03
2022-11-21T13:17:19.657Z,92832.03
2022-11-21T13:19:51.260Z,92826.63
2022-11-21T13:22:50.977Z,92826.91
2022-11-21T13:25:43.255Z,92813.63
2022-11-21T13:28:36.925Z,92801.16
2022-11-21T13:31:26.977Z,92792.22
2022-11-21T13:33:54.565Z,92794.94
2022-11-21T13:36:41.892Z,92798.75
2022-11-21T13:39:36.818Z,92790.63
2022-11-21T13:42:31.195Z,92796.34
2022-11-21T13:45:00.431Z,92790.13
2022-11-21T13:48:18.639Z,92784.69
2022-11-21T13:51:01.657Z,92778.97
2022-11-21T13:53:44.386Z,92771.63
2022-11-21T13:56:13.469Z,92769.22
2022-11-21T13:58:50.775Z,92764.59
2022-11-21T14:01:41.891Z,92761.56
2022-11-21T14:04:21.268Z,92755.34
2022-11-21T14:06:49.544Z,92744.50
2022-11-21T14:09:24.980Z,92748.81
2022-11-21T14:11:54.231Z,92739.88
2022-11-21T14:14:26.984Z,92731.72
2022-11-21T14:16:59.402Z,92729.03
2022-11-21T14:19:27.355Z,92735.25
2022-11-21T14:21:56.012Z,92722.50
2022-11-21T14:24:23.625Z,92723.59
2022-11-21T14:26:52.000Z,92726.31
2022-11-21T14:29:22.529Z,92721.69
2022-11-21T14:31:50.388Z,92719.00
2022-11-21T14:34:27.015Z,92711.97
2022-11-21T14:36:55.383Z,92706.53
2022-11-21T14:39:44.122Z,92711.16
2022-11-21T14:42:13.491Z,92694.09
2022-11-21T14:44:41.102Z,92695.97
2022-11-21T14:47:17.321Z,92685.94
2022-11-21T14:49:53.724Z,92676.22
2022-11-21T14:52:23.408Z,92676.22
2022-11-21T14:55:27.873Z,92669.97
2022-11-21T14:57:41.756Z,92664.88
2022-11-21T15:00:24.645Z,92661.34
2022-11-21T15:02:59.212Z,92653.50
2022-11-21T15:06:00.218Z,92654.31
2022-11-21T15:08:53.730Z,92656.53
2022-11-21T15:11:10.890Z,92655.72
2022-11-21T15:13:58.536Z,92647.59
2022-11-21T15:16:25.976Z,92637.84
2022-11-21T15:18:53.612Z,92632.75
2022-11-21T15:21:22.540Z,92621.91
2022-11-21T15:23:51.407Z,92616.78
2022-11-21T15:26:28.991Z,92615.66
2022-11-21T15:28:56.692Z,92602.09
2022-11-21T15:31:24.443Z,92612.56
2022-11-21T15:34:19.615Z,92601.03
2022-11-21T15:36:45.220Z,92599.28
2022-11-21T15:39:13.683Z,92592.03
2022-11-21T15:41:41.250Z,92589.19
2022-11-21T15:44:26.542Z,92585.56
2022-11-21T15:46:54.173Z,92586.38
2022-11-21T15:49:37.151Z,92579.84
2022-11-21T15:52:10.403Z,92570.59
2022-11-21T15:54:38.130Z,92577.94
2022-11-21T15:57:05.702Z,92574.44
2022-11-21T15:59:33.228Z,92570.91
2022-11-21T16:02:00.808Z,92570.59
2022-11-21T16:04:28.476Z,92568.69
2022-11-21T16:06:56.199Z,92555.94
2022-11-21T16:09:25.124Z,92558.94
2022-11-21T16:11:52.759Z,92543.00
2022-11-21T16:14:20.341Z,92536.75
2022-11-21T16:16:47.958Z,92527.84
2022-11-21T16:19:15.818Z,92525.13
2022-11-21T16:21:43.445Z,92520.78
2022-11-21T16:24:11.231Z,92520.00
2022-11-21T16:26:40.145Z,92520.78
2022-11-21T16:29:07.723Z,92513.78
2022-11-21T16:31:35.314Z,92509.94
2022-11-21T16:34:02.907Z,92501.53
2022-11-21T16:36:31.066Z,92488.25
2022-11-21T16:39:03.737Z,92496.09
2022-11-21T16:41:35.033Z,92495.31
2022-11-21T16:44:04.042Z,92489.38
2022-11-21T16:46:31.618Z,92487.19
2022-11-21T16:49:00.232Z,92482.84
2022-11-21T16:51:27.879Z,92480.66
2022-11-21T16:53:55.448Z,92471.69
2022-11-21T16:56:23.019Z,92462.44
2022-11-21T16:58:50.673Z,92465.97
2022-11-21T17:01:20.590Z,92458.94
2022-11-21T17:03:48.923Z,92448.88
2022-11-21T17:06:17.508Z,92446.19
2022-11-21T17:08:45.187Z,92441.56
2022-11-21T17:11:13.796Z,92448.59
2022-11-21T17:13:41.528Z,92445.06
2022-11-21T17:16:09.096Z,92432.31
2022-11-21T17:18:38.039Z,92426.56
2022-11-21T17:21:05.861Z,92428.50
2022-11-21T17:23:33.643Z,92420.84
2022-11-21T17:26:04.553Z,92416.09
2022-11-21T17:28:32.119Z,92414.84
2022-11-21T17:31:00.099Z,92408.97
2022-11-21T17:33:27.735Z,92407.13
2022-11-21T17:35:56.666Z,92408.75
2022-11-21T17:38:24.245Z,92402.88
2022-11-21T17:41:00.283Z,92395.84
2022-11-21T17:43:27.856Z,92390.44
2022-11-21T17:45:59.043Z,92387.59
2022-11-21T17:48:26.710Z,92373.88
2022-11-21T17:51:03.920Z,92375.34
2022-11-21T17:53:31.699Z,92361.59
2022-11-21T17:55:59.694Z,92359.03
2022-11-21T17:58:27.506Z,92363.53
2022-11-21T18:00:56.260Z,92356.81
2022-11-21T18:03:23.911Z,92352.31
2022-11-21T18:06:02.055Z,92349.00
2022-11-21T18:08:32.804Z,92344.50
2022-11-21T18:11:00.599Z,92335.72
2022-11-21T18:13:28.871Z,92327.75
2022-11-21T18:15:56.564Z,92321.38
2022-11-21T18:18:24.177Z,92315.59
2022-11-21T18:20:52.295Z,92312.25
2022-11-21T18:23:21.358Z,92308.09
2022-11-21T18:25:48.940Z,92296.91
2022-11-21T18:28:16.492Z,92293.53
2022-11-21T18:30:44.088Z,92292.09
2022-11-21T18:33:16.029Z,92278.97
2022-11-21T18:35:46.996Z,92282.16
2022-11-21T18:38:40.590Z,92271.31
2022-11-21T18:41:06.776Z,92269.06
2022-11-21T18:43:34.612Z,92252.75
2022-11-21T18:46:05.430Z,92243.47
2022-11-21T18:49:00.253Z,92234.19
2022-11-21T18:51:23.929Z,92223.81
2022-11-21T18:53:52.004Z,92218.38
2022-11-21T18:56:21.259Z,92205.72
2022-11-21T18:58:49.405Z,92190.22
2022-11-21T19:01:19.515Z,92193.72
2022-11-21T19:03:47.351Z,92180.16
2022-11-21T19:06:17.675Z,92180.97
2022-11-21T19:08:45.376Z,92186.66
2022-11-21T19:11:13.824Z,92188.09
2022-11-21T19:13:42.953Z,92203.28
2022-11-21T19:16:12.354Z,92223.44
2022-11-21T19:18:42.423Z,92231.91
2022-11-21T19:21:13.020Z,92225.66
2022-11-21T19:23:40.912Z,92232.38
2022-11-21T19:26:09.701Z,92211.59
2022-11-21T19:28:37.529Z,92209.84
2022-11-21T19:31:07.498Z,92198.19
2022-11-21T19:33:35.228Z,92185.59
2022-11-21T19:36:03.315Z,92184.66
2022-11-21T19:38:30.866Z,92180.34
2022-11-21T19:41:19.874Z,92171.09
2022-11-21T19:43:48.172Z,92173.50
2022-11-21T19:46:18.391Z,92163.16
2022-11-21T19:48:47.969Z,92166.19
2022-11-21T19:51:15.567Z,92157.09
2022-11-21T19:53:43.291Z,92162.38
2022-11-21T19:56:12.453Z,92155.66
2022-11-21T19:58:40.165Z,92157.91
2022-11-21T20:01:08.884Z,92153.44
2022-11-21T20:03:38.319Z,92146.59
2022-11-21T20:06:06.426Z,92146.44
2022-11-21T20:08:34.127Z,92144.72
2022-11-21T20:11:05.997Z,92151.56
2022-11-21T20:13:33.603Z,92150.63
2022-11-21T20:16:01.244Z,92153.34
2022-11-21T20:18:29.725Z,92136.91
2022-11-21T20:20:58.727Z,92141.06
2022-11-21T20:23:26.352Z,92136.28
2022-11-21T20:25:53.942Z,92132.63
2022-11-21T20:28:21.590Z,92132.94
2022-11-21T20:30:49.200Z,92130.53
2022-11-21T20:33:16.828Z,92118.09
2022-11-21T20:35:44.447Z,92123.03
2022-11-21T20:38:13.763Z,92120.97
2022-11-21T20:40:44.065Z,92121.28
2022-11-21T20:43:14.085Z,92122.41
2022-11-21T20:46:08.858Z,92119.22
2022-11-21T20:48:29.280Z,92131.19
2022-11-21T20:53:53.001Z,92119.88
2022-11-21T20:56:22.344Z,92124.03
2022-11-21T20:58:50.401Z,92131.38
2022-11-21T21:01:20.088Z,92136.31
2022-11-21T21:03:48.038Z,92129.28
2022-11-21T21:06:16.409Z,92128.50
2022-11-21T21:08:44.105Z,92115.59
2022-11-21T21:11:36.855Z,92117.50
2022-11-21T21:14:01.503Z,92118.16
2022-11-21T21:16:30.336Z,92125.47
2022-11-21T21:18:57.913Z,92117.66
2022-11-21T21:21:27.077Z,92127.25
2022-11-21T21:23:59.968Z,92109.38
2022-11-21T21:26:29.979Z,92114.00
2022-11-21T21:28:57.972Z,92112.09
2022-11-21T21:31:25.668Z,92115.09
2022-11-21T21:33:53.395Z,92108.91
2022-11-21T21:36:22.083Z,92121.66
2022-11-21T21:38:51.184Z,92123.59
2022-11-21T21:41:18.794Z,92130.13
2022-11-21T21:43:49.554Z,92127.72
2022-11-21T21:46:20.498Z,92118.81
2022-11-21T21:48:48.132Z,92125.31
2022-11-21T21:51:16.593Z,92141.59
2022-11-21T21:53:44.221Z,92195.38
2022-11-21T21:56:11.891Z,92187.56
2022-11-21T21:58:40.592Z,92190.28
2022-11-21T22:01:11.230Z,92176.22
2022-11-21T22:03:38.960Z,92181.34
2022-11-21T22:06:07.437Z,92174.59
2022-11-21T22:08:35.568Z,92173.81
2022-11-21T22:11:04.350Z,92169.50
2022-11-21T22:13:32.037Z,92163.28
2022-11-21T22:16:00.029Z,92168.69
2022-11-21T22:18:29.197Z,92167.91
2022-11-21T22:20:56.887Z,92158.97
2022-11-21T22:23:24.497Z,92162.00
2022-11-21T22:25:55.638Z,92169.34
2022-11-21T22:28:23.246Z,92153.38
2022-11-21T22:31:00.196Z,92160.72
2022-11-21T22:33:29.220Z,92169.97
2022-11-21T22:36:00.092Z,92151.00
2022-11-21T22:38:27.723Z,92151.00
2022-11-21T22:40:57.313Z,92148.28
2022-11-21T22:43:24.915Z,92145.88
2022-11-21T22:45:52.477Z,92143.16
2022-11-21T22:48:20.034Z,92142.38
2022-11-21T22:50:49.086Z,92138.88
2022-11-21T22:53:16.707Z,92138.09
2022-11-21T22:55:44.342Z,92127.53
2022-11-21T22:58:11.950Z,92129.44
2022-11-21T23:00:39.596Z,92134.88
2022-11-21T23:03:07.165Z,92141.41
2022-11-21T23:05:34.760Z,92133.28
2022-11-21T23:08:03.780Z,92137.09
2022-11-21T23:10:31.401Z,92134.38
2022-11-21T23:12:58.984Z,92128.97
2022-11-21T23:15:26.617Z,92134.72
2022-11-21T23:17:54.295Z,92128.50
2022-11-21T23:20:21.857Z,92135.84
2022-11-21T23:22:49.428Z,92129.59
2022-11-21T23:25:19.454Z,92131.53
2022-11-21T23:27:47.086Z,92138.88
2022-11-21T23:30:15.679Z,92140.75
2022-11-21T23:32:43.270Z,92142.69
2022-11-21T23:35:10.903Z,92144.59
2022-11-21T23:37:38.455Z,92150.00
2022-11-21T23:40:07.193Z,92147.63
2022-11-21T23:42:36.130Z,92147.63
2022-11-21T23:45:03.794Z,92140.63
2022-11-21T23:47:31.476Z,92144.94
2022-11-21T23:49:58.993Z,92142.22
2022-11-21T23:52:26.624Z,92139.81
2022-11-21T23:54:54.221Z,92139.81
2022-11-21T23:57:21.819Z,92139.03
2022-11-21T23:59:50.789Z,92141.25
